createdAt,value
2023-05-13T00:01:23.895Z,2.17
2023-05-13T00:03:50.827Z,2.42
2023-05-13T00:06:17.668Z,1.75
2023-05-13T00:08:44.621Z,2.08
2023-05-13T00:11:11.372Z,2.88
2023-05-13T00:13:38.062Z,2.47
2023-05-13T00:16:04.942Z,2.08
2023-05-13T00:18:31.740Z,3.83
2023-05-13T00:20:58.455Z,3.40
2023-05-13T00:23:25.187Z,3.10
2023-05-13T00:25:51.916Z,2.30
2023-05-13T00:28:19.430Z,4.30
2023-05-13T00:30:46.612Z,2.70
2023-05-13T00:33:13.348Z,3.33
2023-05-13T00:35:40.072Z,2.28
2023-05-13T00:38:07.206Z,2.95
2023-05-13T00:40:37.424Z,2.60
2023-05-13T00:43:04.329Z,2.53
2023-05-13T00:45:31.353Z,2.50
2023-05-13T00:47:59.272Z,2.83
2023-05-13T00:50:26.142Z,2.70
2023-05-13T00:52:53.964Z,2.75
2023-05-13T00:55:21.224Z,2.55
2023-05-13T00:57:47.925Z,3.22
2023-05-13T01:00:15.309Z,3.20
2023-05-13T01:03:00.069Z,2.53
2023-05-13T01:05:40.281Z,2.83
2023-05-13T01:08:27.012Z,3.13
2023-05-13T01:13:31.705Z,3.92
2023-05-13T01:16:12.822Z,3.80
2023-05-13T01:19:02.224Z,3.70
2023-05-13T01:21:29.300Z,3.05
2023-05-13T01:23:56.281Z,3.17
2023-05-13T01:26:24.254Z,3.95
2023-05-13T01:28:51.067Z,3.20
2023-05-13T01:31:19.057Z,2.95
2023-05-13T01:33:46.759Z,3.13
2023-05-13T01:36:14.914Z,3.70
2023-05-13T01:38:42.969Z,3.25
2023-05-13T01:41:09.801Z,2.88
2023-05-13T01:43:36.885Z,4.20
2023-05-13T01:46:04.201Z,3.63
2023-05-13T01:48:31.418Z,4.82
2023-05-13T01:50:58.429Z,3.80
2023-05-13T01:53:25.115Z,3.78
2023-05-13T01:55:53.226Z,3.70
2023-05-13T01:58:21.276Z,3.67
2023-05-13T02:00:48.594Z,4.15
2023-05-13T02:03:15.573Z,3.90
2023-05-13T02:05:42.420Z,3.00
2023-05-13T02:08:09.303Z,3.28
2023-05-13T02:10:38.307Z,3.67
2023-05-13T02:13:05.026Z,3.85
2023-05-13T02:15:31.794Z,3.90
2023-05-13T02:17:58.926Z,3.78
2023-05-13T02:20:26.367Z,3.88
2023-05-13T02:22:53.078Z,3.17
2023-05-13T02:25:19.893Z,3.22
2023-05-13T02:27:46.586Z,3.33
2023-05-13T02:30:13.450Z,3.22
2023-05-13T02:32:42.710Z,3.25
2023-05-13T02:35:10.847Z,3.38
2023-05-13T02:37:37.624Z,3.88
2023-05-13T02:40:05.196Z,3.20
2023-05-13T02:42:32.093Z,3.08
2023-05-13T02:44:58.816Z,2.97
2023-05-13T02:47:27.202Z,4.80
2023-05-13T02:49:56.322Z,3.80
2023-05-13T02:52:23.164Z,3.28
2023-05-13T02:54:49.997Z,4.55
2023-05-13T02:57:16.755Z,3.67
2023-05-13T02:59:44.098Z,3.22
2023-05-13T03:02:11.027Z,3.70
2023-05-13T03:04:37.693Z,4.32
2023-05-13T03:07:04.554Z,2.90
2023-05-13T03:09:31.576Z,3.25
2023-05-13T03:11:58.490Z,4.38
2023-05-13T03:14:25.185Z,3.53
2023-05-13T03:16:51.896Z,3.35
2023-05-13T03:19:18.685Z,3.38
2023-05-13T03:21:46.155Z,3.63
2023-05-13T03:24:15.685Z,3.05
2023-05-13T03:26:42.440Z,3.60
2023-05-13T03:29:09.349Z,4.55
2023-05-13T03:31:37.862Z,3.85
2023-05-13T03:34:05.604Z,3.55
2023-05-13T03:36:33.373Z,3.97
2023-05-13T03:39:00.766Z,3.95
2023-05-13T03:41:28.216Z,2.97
2023-05-13T03:43:57.371Z,3.15
2023-05-13T03:46:24.197Z,3.35
2023-05-13T03:48:50.916Z,3.92
2023-05-13T03:51:17.670Z,3.05
2023-05-13T03:53:45.026Z,3.25
2023-05-13T03:56:11.857Z,3.70
2023-05-13T03:58:39.735Z,3.65
2023-05-13T04:01:07.732Z,2.88
2023-05-13T04:03:34.737Z,2.88
2023-05-13T04:06:01.458Z,3.00
2023-05-13T04:08:28.126Z,3.00
2023-05-13T04:10:57.029Z,3.30
2023-05-13T04:13:25.963Z,2.88
2023-05-13T04:15:54.307Z,2.67
2023-05-13T04:18:21.661Z,3.63
2023-05-13T04:20:48.355Z,3.10
2023-05-13T04:23:15.183Z,3.00
2023-05-13T04:25:42.511Z,2.75
2023-05-13T04:28:09.376Z,2.45
2023-05-13T04:30:42.973Z,3.38
2023-05-13T04:33:09.896Z,2.42
2023-05-13T04:35:37.906Z,3.45
2023-05-13T04:38:05.642Z,3.50
2023-05-13T04:40:32.484Z,3.17
2023-05-13T04:43:05.064Z,3.00
2023-05-13T04:45:37.072Z,3.00
2023-05-13T04:48:06.442Z,3.10
2023-05-13T04:50:33.186Z,2.97
2023-05-13T04:53:01.015Z,3.40
2023-05-13T04:55:27.952Z,2.65
2023-05-13T04:57:56.227Z,3.17
2023-05-13T05:00:24.135Z,4.15
2023-05-13T05:02:51.757Z,3.05
2023-05-13T05:05:18.823Z,3.95
2023-05-13T05:07:46.085Z,3.13
2023-05-13T05:10:14.117Z,3.17
2023-05-13T05:12:44.398Z,2.78
2023-05-13T05:15:15.733Z,3.28
2023-05-13T05:17:44.987Z,3.10
2023-05-13T05:20:12.228Z,2.80
2023-05-13T05:22:39.384Z,3.40
2023-05-13T05:25:06.797Z,2.85
2023-05-13T05:27:33.495Z,3.13
2023-05-13T05:30:00.227Z,2.50
2023-05-13T05:32:27.338Z,3.05
2023-05-13T05:34:54.158Z,3.17
2023-05-13T05:37:21.098Z,3.60
2023-05-13T05:39:47.757Z,2.85
2023-05-13T05:42:14.436Z,2.45
2023-05-13T05:44:41.170Z,2.85
2023-05-13T05:47:07.831Z,3.00
2023-05-13T05:49:34.537Z,3.17
2023-05-13T05:52:01.236Z,2.50
2023-05-13T05:54:28.229Z,3.25
2023-05-13T05:56:55.002Z,3.30
2023-05-13T05:59:21.718Z,3.05
2023-05-13T06:01:49.078Z,3.13
2023-05-13T06:04:16.023Z,2.05
2023-05-13T06:06:43.105Z,3.95
2023-05-13T06:09:10.193Z,2.90
2023-05-13T06:11:36.851Z,5.07
2023-05-13T06:14:03.614Z,2.65
2023-05-13T06:16:30.421Z,2.72
2023-05-13T06:18:57.207Z,3.55
2023-05-13T06:21:25.296Z,2.70
2023-05-13T06:23:52.051Z,2.67
2023-05-13T06:26:21.970Z,2.60
2023-05-13T06:28:48.957Z,2.08
2023-05-13T06:31:15.694Z,2.70
2023-05-13T06:33:43.879Z,2.30
2023-05-13T06:36:10.643Z,3.35
2023-05-13T06:38:37.439Z,3.00
2023-05-13T06:41:04.322Z,2.40
2023-05-13T06:43:34.488Z,3.65
2023-05-13T06:46:13.024Z,2.25
2023-05-13T06:48:39.887Z,2.92
2023-05-13T06:51:07.091Z,2.20
2023-05-13T06:53:33.771Z,3.17
2023-05-13T06:56:00.446Z,3.33
2023-05-13T06:58:27.744Z,3.90
2023-05-13T07:00:54.483Z,3.05
2023-05-13T07:03:21.319Z,3.80
2023-05-13T07:05:48.032Z,4.45
2023-05-13T07:08:17.826Z,4.45
2023-05-13T07:10:44.978Z,3.65
2023-05-13T07:13:11.833Z,3.80
2023-05-13T07:15:38.626Z,4.20
2023-05-13T07:18:05.686Z,3.25
2023-05-13T07:20:32.731Z,3.40
2023-05-13T07:22:59.486Z,4.45
2023-05-13T07:25:26.180Z,4.20
2023-05-13T07:27:52.893Z,3.50
2023-05-13T07:30:19.671Z,4.40
2023-05-13T07:32:46.464Z,3.55
2023-05-13T07:35:13.299Z,3.30
2023-05-13T07:37:40.308Z,3.72
2023-05-13T07:40:07.736Z,4.10
2023-05-13T07:42:34.891Z,3.60
2023-05-13T07:45:01.580Z,4.20
2023-05-13T07:47:29.158Z,3.40
2023-05-13T07:49:56.020Z,4.55
2023-05-13T07:52:23.367Z,3.58
2023-05-13T07:54:50.201Z,4.28
2023-05-13T07:57:17.056Z,4.30
2023-05-13T07:59:44.862Z,3.67
2023-05-13T08:02:12.566Z,4.07
2023-05-13T08:04:39.492Z,4.30
2023-05-13T08:07:06.255Z,3.60
2023-05-13T08:09:32.945Z,4.43
2023-05-13T08:11:59.624Z,3.70
2023-05-13T08:14:26.455Z,3.67
2023-05-13T08:16:53.204Z,3.80
2023-05-13T08:19:20.329Z,3.75
2023-05-13T08:21:47.062Z,3.63
2023-05-13T08:24:13.701Z,4.03
2023-05-13T08:26:40.359Z,3.30
2023-05-13T08:29:07.560Z,3.22
2023-05-13T08:31:34.291Z,3.13
2023-05-13T08:34:00.999Z,3.05
2023-05-13T08:36:28.566Z,3.72
2023-05-13T08:38:55.217Z,3.53
2023-05-13T08:41:22.865Z,3.45
2023-05-13T08:43:51.873Z,3.30
2023-05-13T08:46:19.368Z,3.28
2023-05-13T08:48:47.009Z,3.53
2023-05-13T08:51:13.968Z,3.53
2023-05-13T08:53:41.472Z,4.05
2023-05-13T08:56:09.608Z,3.33
2023-05-13T08:58:36.488Z,3.72
2023-05-13T09:01:05.024Z,3.35
2023-05-13T09:03:32.390Z,3.08
2023-05-13T09:06:02.906Z,4.25
2023-05-13T09:08:29.574Z,4.15
2023-05-13T09:10:56.428Z,3.40
2023-05-13T09:13:23.137Z,3.67
2023-05-13T09:15:50.734Z,3.35
2023-05-13T09:18:19.230Z,3.47
2023-05-13T09:20:46.398Z,3.50
2023-05-13T09:23:13.550Z,2.90
2023-05-13T09:25:40.287Z,3.60
2023-05-13T09:28:08.078Z,3.22
2023-05-13T09:30:38.441Z,3.03
2023-05-13T09:33:06.471Z,3.13
2023-05-13T09:35:34.585Z,3.33
2023-05-13T09:38:01.567Z,3.30
2023-05-13T09:40:28.378Z,3.40
2023-05-13T09:43:00.373Z,3.17
2023-05-13T09:45:27.236Z,3.97
2023-05-13T09:47:55.959Z,3.50
2023-05-13T09:50:23.197Z,2.95
2023-05-13T09:52:50.244Z,3.03
2023-05-13T09:55:16.987Z,3.33
2023-05-13T09:57:43.674Z,2.75
2023-05-13T10:00:15.256Z,3.20
2023-05-13T10:02:52.288Z,3.53
2023-05-13T10:05:19.246Z,3.05
2023-05-13T10:07:46.469Z,2.70
2023-05-13T10:10:13.383Z,2.90
2023-05-13T10:12:41.637Z,3.05
2023-05-13T10:15:09.941Z,3.30
2023-05-13T10:17:36.829Z,3.33
2023-05-13T10:20:05.710Z,2.65
2023-05-13T10:22:34.631Z,3.00
2023-05-13T10:25:03.823Z,2.92
2023-05-13T10:27:32.589Z,2.67
2023-05-13T10:30:03.531Z,3.70
2023-05-13T10:32:31.608Z,2.67
2023-05-13T10:35:06.590Z,3.47
2023-05-13T10:37:59.167Z,2.90
2023-05-13T10:40:40.612Z,2.70
2023-05-13T10:43:21.941Z,3.03
2023-05-13T10:45:49.720Z,2.72
2023-05-13T10:48:17.619Z,2.75
2023-05-13T10:51:06.608Z,2.63
2023-05-13T10:54:03.687Z,2.88
2023-05-13T10:59:06.280Z,2.63
2023-05-13T11:01:43.922Z,2.58
2023-05-13T11:04:19.981Z,2.78
2023-05-13T11:06:48.986Z,3.05
2023-05-13T11:09:32.041Z,2.00
2023-05-13T11:11:59.963Z,2.30
2023-05-13T11:14:27.970Z,2.53
2023-05-13T11:17:00.378Z,2.67
2023-05-13T11:19:32.627Z,2.33
2023-05-13T11:22:10.250Z,1.90
2023-05-13T11:24:37.097Z,2.20
2023-05-13T11:27:19.985Z,1.80
2023-05-13T11:29:55.185Z,2.70
2023-05-13T11:32:52.126Z,3.20
2023-05-13T11:38:00.102Z,2.25
2023-05-13T11:40:31.456Z,2.17
2023-05-13T11:42:59.014Z,2.15
2023-05-13T11:45:26.961Z,2.00
2023-05-13T11:47:54.791Z,1.95
2023-05-13T11:50:32.498Z,1.88
2023-05-13T11:53:01.132Z,2.00
2023-05-13T11:55:29.454Z,1.45
2023-05-13T11:57:56.899Z,1.65
2023-05-13T12:00:28.180Z,2.33
2023-05-13T12:02:55.555Z,1.52
2023-05-13T12:05:23.629Z,1.60
2023-05-13T12:07:51.312Z,1.35
2023-05-13T12:10:18.126Z,1.38
2023-05-13T12:12:45.986Z,2.25
2023-05-13T12:15:20.665Z,1.83
2023-05-13T12:17:49.168Z,1.25
2023-05-13T12:20:23.307Z,1.40
2023-05-13T12:22:50.133Z,1.25
2023-05-13T12:25:35.678Z,0.80
2023-05-13T12:28:20.921Z,1.52
2023-05-13T12:30:58.565Z,1.35
2023-05-13T12:33:33.516Z,1.30
2023-05-13T12:36:24.153Z,1.20
2023-05-13T12:38:57.521Z,3.08
2023-05-13T12:41:31.037Z,1.20
2023-05-13T12:44:09.238Z,1.35
2023-05-13T12:46:36.704Z,1.20
2023-05-13T12:49:05.316Z,0.90
2023-05-13T12:51:35.596Z,1.20
2023-05-13T12:54:02.314Z,1.60
2023-05-13T12:56:29.007Z,0.93
2023-05-13T12:58:56.282Z,1.85
2023-05-13T13:01:23.487Z,0.80
2023-05-13T13:03:50.672Z,0.98
2023-05-13T13:06:18.073Z,1.02
2023-05-13T13:08:44.798Z,1.10
2023-05-13T13:11:14.866Z,0.80
2023-05-13T13:13:41.705Z,1.25
2023-05-13T13:16:09.211Z,2.60
2023-05-13T13:18:36.204Z,0.93
2023-05-13T13:21:03.355Z,1.70
2023-05-13T13:23:30.049Z,0.70
2023-05-13T13:25:59.189Z,1.35
2023-05-13T13:28:26.712Z,0.98
2023-05-13T13:30:53.756Z,0.85
2023-05-13T13:33:21.046Z,1.05
2023-05-13T13:35:49.241Z,1.55
2023-05-13T13:38:15.978Z,0.70
2023-05-13T13:40:42.704Z,1.25
2023-05-13T13:43:09.437Z,1.00
2023-05-13T13:45:36.582Z,1.23
2023-05-13T13:48:03.531Z,1.08
2023-05-13T13:50:30.292Z,0.85
2023-05-13T13:52:57.022Z,0.98
2023-05-13T13:55:24.275Z,1.17
2023-05-13T13:57:51.901Z,1.70
2023-05-13T14:00:19.066Z,1.15
2023-05-13T14:02:46.113Z,1.58
2023-05-13T14:05:13.655Z,1.38
2023-05-13T14:07:40.656Z,1.17
2023-05-13T14:10:08.096Z,0.80
2023-05-13T14:12:36.258Z,1.00
2023-05-13T14:15:03.213Z,0.80
2023-05-13T14:17:30.245Z,1.05
2023-05-13T14:19:56.993Z,1.00
2023-05-13T14:22:24.248Z,1.23
2023-05-13T14:24:52.329Z,1.00
2023-05-13T14:27:19.535Z,0.90
2023-05-13T14:29:47.520Z,0.85
2023-05-13T14:32:14.421Z,1.10
2023-05-13T14:34:41.427Z,1.10
2023-05-13T14:37:08.575Z,1.45
2023-05-13T14:39:35.315Z,1.25
2023-05-13T14:42:01.997Z,1.35
2023-05-13T14:44:28.642Z,1.17
2023-05-13T14:46:55.991Z,0.88
2023-05-13T14:49:22.714Z,0.90
2023-05-13T14:51:49.421Z,1.20
2023-05-13T14:54:17.684Z,1.02
2023-05-13T14:56:44.725Z,1.20
2023-05-13T14:59:11.618Z,0.80
2023-05-13T15:01:38.715Z,0.98
2023-05-13T15:04:05.902Z,0.93
2023-05-13T15:06:33.390Z,1.10
2023-05-13T15:09:00.210Z,1.00
2023-05-13T15:11:30.730Z,1.00
2023-05-13T15:13:57.480Z,1.00
2023-05-13T15:16:24.179Z,0.90
2023-05-13T15:18:50.919Z,0.93
2023-05-13T15:21:17.982Z,1.30
2023-05-13T15:23:44.949Z,1.80
2023-05-13T15:26:11.782Z,1.10
2023-05-13T15:28:38.596Z,0.88
2023-05-13T15:31:05.773Z,1.05
2023-05-13T15:33:32.670Z,1.08
2023-05-13T15:35:59.972Z,1.20
2023-05-13T15:38:27.150Z,1.25
2023-05-13T15:40:53.836Z,1.13
2023-05-13T15:43:20.750Z,1.58
2023-05-13T15:45:47.654Z,1.10
2023-05-13T15:48:14.400Z,0.88
2023-05-13T15:50:41.195Z,1.13
2023-05-13T15:53:07.883Z,0.85
2023-05-13T15:55:36.795Z,1.27
2023-05-13T15:58:03.511Z,1.13
2023-05-13T16:00:30.559Z,0.80
2023-05-13T16:02:57.412Z,1.55
2023-05-13T16:05:24.095Z,0.90
2023-05-13T16:07:50.825Z,1.48
2023-05-13T16:10:17.793Z,1.58
2023-05-13T16:12:44.584Z,0.70
2023-05-13T16:15:11.760Z,1.15
2023-05-13T16:17:38.557Z,1.08
2023-05-13T16:20:06.097Z,1.23
2023-05-13T16:22:38.272Z,1.00
2023-05-13T16:25:09.592Z,0.95
2023-05-13T16:27:37.307Z,1.75
2023-05-13T16:30:06.478Z,2.05
2023-05-13T16:32:34.683Z,1.40
2023-05-13T16:35:01.615Z,1.60
2023-05-13T16:37:28.664Z,1.13
2023-05-13T16:39:55.500Z,1.63
2023-05-13T16:42:22.648Z,1.80
2023-05-13T16:44:49.286Z,1.40
2023-05-13T16:47:15.975Z,1.23
2023-05-13T16:49:42.714Z,1.13
2023-05-13T16:52:09.431Z,1.83
2023-05-13T16:54:36.105Z,1.55
2023-05-13T16:57:02.809Z,1.75
2023-05-13T16:59:29.587Z,1.58
2023-05-13T17:01:56.307Z,1.17
2023-05-13T17:04:23.028Z,1.13
2023-05-13T17:06:49.820Z,1.75
2023-05-13T17:09:16.543Z,1.38
2023-05-13T17:11:43.284Z,1.52
2023-05-13T17:14:10.138Z,1.65
2023-05-13T17:16:37.089Z,1.80
2023-05-13T17:19:03.913Z,1.63
2023-05-13T17:21:30.717Z,1.58
2023-05-13T17:23:57.389Z,1.67
2023-05-13T17:26:24.170Z,1.50
2023-05-13T17:28:51.284Z,1.67
2023-05-13T17:31:18.236Z,1.20
2023-05-13T17:33:45.091Z,1.23
2023-05-13T17:36:11.866Z,1.75
2023-05-13T17:38:38.591Z,1.45
2023-05-13T17:41:05.568Z,1.23
2023-05-13T17:43:32.294Z,1.45
2023-05-13T17:45:59.299Z,1.42
2023-05-13T17:48:26.950Z,1.38
2023-05-13T17:50:54.095Z,1.65
2023-05-13T17:53:21.220Z,1.45
2023-05-13T17:55:48.616Z,1.75
2023-05-13T17:58:16.343Z,1.50
2023-05-13T18:00:43.464Z,1.20
2023-05-13T18:03:10.299Z,1.33
2023-05-13T18:05:37.353Z,1.60
2023-05-13T18:08:04.283Z,1.52
2023-05-13T18:10:30.976Z,2.10
2023-05-13T18:12:57.666Z,1.23
2023-05-13T18:15:24.358Z,1.23
2023-05-13T18:17:51.064Z,2.05
2023-05-13T18:20:18.237Z,1.50
2023-05-13T18:22:45.007Z,1.55
2023-05-13T18:25:11.783Z,1.60
2023-05-13T18:27:38.664Z,1.88
2023-05-13T18:30:06.713Z,1.55
2023-05-13T18:32:33.410Z,2.10
2023-05-13T18:35:00.144Z,1.48
2023-05-13T18:37:26.907Z,1.67
2023-05-13T18:39:53.705Z,2.30
2023-05-13T18:42:20.896Z,1.85
2023-05-13T18:44:47.616Z,2.00
2023-05-13T18:47:14.239Z,1.38
2023-05-13T18:49:40.952Z,1.50
2023-05-13T18:52:07.761Z,1.75
2023-05-13T18:54:34.957Z,1.90
2023-05-13T18:57:01.772Z,2.20
2023-05-13T18:59:28.479Z,1.60
2023-05-13T19:01:55.622Z,2.40
2023-05-13T19:04:22.580Z,1.55
2023-05-13T19:06:49.407Z,1.75
2023-05-13T19:09:16.349Z,1.88
2023-05-13T19:11:44.145Z,2.05
2023-05-13T19:14:10.984Z,2.15
2023-05-13T19:16:37.781Z,1.65
2023-05-13T19:19:04.678Z,1.98
2023-05-13T19:21:31.651Z,1.50
2023-05-13T19:23:58.655Z,1.95
2023-05-13T19:26:25.577Z,1.80
2023-05-13T19:28:52.497Z,1.98
2023-05-13T19:31:19.285Z,1.48
2023-05-13T19:33:46.491Z,1.75
2023-05-13T19:36:13.351Z,1.65
2023-05-13T19:38:40.065Z,1.75
2023-05-13T19:41:06.794Z,1.73
2023-05-13T19:43:33.443Z,1.15
2023-05-13T19:46:00.329Z,2.05
2023-05-13T19:48:30.052Z,1.40
2023-05-13T19:50:57.865Z,1.08
2023-05-13T19:53:24.682Z,1.23
2023-05-13T19:55:51.475Z,1.40
2023-05-13T19:58:18.212Z,1.50
2023-05-13T20:00:45.107Z,1.70
2023-05-13T20:03:12.048Z,1.60
2023-05-13T20:05:41.199Z,1.25
2023-05-13T20:08:08.098Z,1.00
2023-05-13T20:10:37.953Z,1.30
2023-05-13T20:13:04.684Z,1.30
2023-05-13T20:15:31.773Z,1.00
2023-05-13T20:17:58.576Z,1.88
2023-05-13T20:20:25.409Z,0.90
2023-05-13T20:22:52.213Z,1.33
2023-05-13T20:25:18.992Z,0.98
2023-05-13T20:27:45.697Z,2.25
2023-05-13T20:30:12.957Z,1.08
2023-05-13T20:32:39.776Z,1.10
2023-05-13T20:35:07.679Z,1.85
2023-05-13T20:37:34.731Z,1.17
2023-05-13T20:40:01.468Z,1.05
2023-05-13T20:42:28.147Z,1.20
2023-05-13T20:44:54.792Z,1.20
2023-05-13T20:47:21.598Z,1.20
2023-05-13T20:49:48.284Z,2.15
2023-05-13T20:52:14.986Z,1.13
2023-05-13T20:54:41.792Z,0.73
2023-05-13T20:57:08.470Z,1.33
2023-05-13T20:59:35.224Z,0.93
2023-05-13T21:02:01.912Z,1.20
2023-05-13T21:04:28.664Z,1.35
2023-05-13T21:06:55.380Z,1.10
2023-05-13T21:09:22.062Z,1.45
2023-05-13T21:11:48.709Z,1.08
2023-05-13T21:14:15.603Z,2.05
2023-05-13T21:16:42.636Z,1.25
2023-05-13T21:19:21.563Z,1.67
2023-05-13T21:21:48.302Z,2.13
2023-05-13T21:24:18.907Z,1.77
2023-05-13T21:26:46.226Z,1.25
2023-05-13T21:29:13.004Z,2.53
2023-05-13T21:31:39.703Z,1.27
2023-05-13T21:34:06.449Z,1.27
2023-05-13T21:36:33.733Z,1.30
2023-05-13T21:39:00.503Z,2.00
2023-05-13T21:41:27.236Z,1.65
2023-05-13T21:43:53.926Z,1.70
2023-05-13T21:46:20.728Z,1.52
2023-05-13T21:48:48.099Z,1.50
2023-05-13T21:51:14.908Z,1.63
2023-05-13T21:53:42.718Z,1.52
2023-05-13T21:56:09.358Z,1.00
2023-05-13T21:58:36.089Z,2.13
2023-05-13T22:01:02.806Z,1.48
2023-05-13T22:03:29.672Z,1.67
2023-05-13T22:05:56.475Z,1.75
2023-05-13T22:08:23.646Z,1.58
2023-05-13T22:10:50.314Z,1.67
2023-05-13T22:13:17.164Z,1.77
2023-05-13T22:15:44.027Z,1.65
2023-05-13T22:18:10.815Z,2.08
2023-05-13T22:20:37.501Z,2.20
2023-05-13T22:23:04.155Z,1.90
2023-05-13T22:25:30.929Z,1.98
2023-05-13T22:27:57.654Z,3.10
2023-05-13T22:30:24.652Z,2.22
2023-05-13T22:32:52.025Z,2.20
2023-05-13T22:35:18.770Z,3.45
2023-05-13T22:37:45.548Z,3.13
2023-05-13T22:40:12.741Z,2.03
2023-05-13T22:42:39.447Z,3.15
2023-05-13T22:45:06.678Z,2.55
2023-05-13T22:47:34.637Z,2.50
2023-05-13T22:50:01.294Z,2.67
2023-05-13T22:52:27.977Z,3.22
2023-05-13T22:54:54.626Z,2.70
2023-05-13T22:57:21.938Z,2.30
2023-05-13T22:59:48.698Z,2.53
2023-05-13T23:02:15.561Z,3.20
2023-05-13T23:04:42.237Z,2.88
2023-05-13T23:07:08.876Z,3.00
2023-05-13T23:09:35.551Z,3.13
2023-05-13T23:12:02.278Z,4.57
2023-05-13T23:14:30.034Z,3.78
2023-05-13T23:16:56.697Z,3.20
2023-05-13T23:19:25.198Z,2.95
2023-05-13T23:21:52.556Z,3.83
2023-05-13T23:24:19.240Z,2.88
2023-05-13T23:26:47.401Z,3.15
2023-05-13T23:29:14.518Z,2.92
2023-05-13T23:31:41.269Z,3.00
2023-05-13T23:34:08.203Z,4.68
2023-05-13T23:36:35.062Z,4.05
2023-05-13T23:39:01.736Z,3.67
2023-05-13T23:41:28.670Z,3.75
2023-05-13T23:43:55.344Z,4.53
2023-05-13T23:46:22.210Z,4.85
2023-05-13T23:48:49.006Z,3.38
2023-05-13T23:51:15.645Z,4.13
2023-05-13T23:53:42.292Z,3.20
2023-05-13T23:56:08.961Z,3.45
2023-05-13T23:58:35.722Z,5.95
